GLO1715 SBCY-SBBR
Flight info
| Callsign | GLO1715 |
|---|---|
| Flight time | 1h 10m |
| Altitude | 41000 |
| Route | TORAB UZ8 MABMA DCT UBSUS |
| Aircraft | B737/M-SDFGIKLORWXY/LB1 |
Departure
| Time | 2026-04-20 21:34 |
|---|---|
| Airport | Várzea Grande–Marechal Rondon International Airport (SBCY) |
Arrival
| Time | 2026-04-20 22:45 |
|---|---|
| Airport | Presidente Juscelino Kubitschek International Airport (SBBR) |
| Time | Latitude | Longitude | Altitude | Speed | Heading |
|---|---|---|---|---|---|
| 2026-04-20 21:23 | -15.64973 | -56.12021 | 595 ft | 0 kts | 242° |
| 2026-04-20 21:27 | -15.64965 | -56.12006 | 595 ft | 4 kts | 225° |
| 2026-04-20 21:28 | -15.64945 | -56.11994 | 595 ft | 4 kts | 173° |
| 2026-04-20 21:28 | -15.64929 | -56.12000 | 595 ft | 1 kts | 142° |
| 2026-04-20 21:28 | -15.64926 | -56.12002 | 595 ft | 0 kts | 142° |
| 2026-04-20 21:30 | -15.64938 | -56.11993 | 595 ft | 5 kts | 142° |
| 2026-04-20 21:31 | -15.64985 | -56.11963 | 595 ft | 11 kts | 153° |
| 2026-04-20 21:31 | -15.65068 | -56.11919 | 596 ft | 16 kts | 153° |
| 2026-04-20 21:31 | -15.65181 | -56.11859 | 596 ft | 21 kts | 153° |
| 2026-04-20 21:31 | -15.65322 | -56.11785 | 596 ft | 25 kts | 153° |
| 2026-04-20 21:32 | -15.65489 | -56.11695 | 596 ft | 29 kts | 152° |
| 2026-04-20 21:32 | -15.65665 | -56.11601 | 596 ft | 28 kts | 153° |
| 2026-04-20 21:32 | -15.65831 | -56.11513 | 595 ft | 26 kts | 152° |
| 2026-04-20 21:32 | -15.65986 | -56.11431 | 595 ft | 24 kts | 153° |
| 2026-04-20 21:33 | -15.66131 | -56.11354 | 596 ft | 23 kts | 153° |
| 2026-04-20 21:33 | -15.66243 | -56.11285 | 596 ft | 15 kts | 123° |
| 2026-04-20 21:33 | -15.66211 | -56.11197 | 596 ft | 14 kts | 22° |
| 2026-04-20 21:33 | -15.66118 | -56.11233 | 596 ft | 18 kts | 333° |
| 2026-04-20 21:34 | -15.65788 | -56.11407 | 596 ft | 91 kts | 332° |
| 2026-04-20 21:34 | -15.65013 | -56.11819 | 598 ft | 156 kts | 333° |
| 2026-04-20 21:34 | -15.63946 | -56.12376 | 1053 ft | 175 kts | 335° |
| 2026-04-20 21:34 | -15.62874 | -56.12958 | 1930 ft | 172 kts | 332° |
| 2026-04-20 21:35 | -15.61823 | -56.13530 | 2701 ft | 175 kts | 334° |
| 2026-04-20 21:35 | -15.60547 | -56.13733 | 2996 ft | 205 kts | 17° |
| 2026-04-20 21:35 | -15.59342 | -56.12829 | 3257 ft | 233 kts | 57° |
| 2026-04-20 21:35 | -15.58904 | -56.11124 | 3579 ft | 262 kts | 94° |
| 2026-04-20 21:36 | -15.59337 | -56.09259 | 4419 ft | 268 kts | 105° |
| 2026-04-20 21:36 | -15.59888 | -56.07412 | 5407 ft | 268 kts | 105° |
| 2026-04-20 21:36 | -15.60449 | -56.05588 | 6363 ft | 269 kts | 105° |
| 2026-04-20 21:36 | -15.61033 | -56.03702 | 7225 ft | 273 kts | 105° |
| 2026-04-20 21:37 | -15.61611 | -56.01833 | 8028 ft | 279 kts | 106° |
| 2026-04-20 21:37 | -15.62207 | -55.99902 | 8866 ft | 283 kts | 106° |
| 2026-04-20 21:37 | -15.62809 | -55.97945 | 9720 ft | 287 kts | 106° |
| 2026-04-20 21:37 | -15.63424 | -55.95941 | 10340 ft | 299 kts | 107° |
| 2026-04-20 21:38 | -15.64082 | -55.93791 | 10519 ft | 326 kts | 107° |
| 2026-04-20 21:38 | -15.64791 | -55.91470 | 10698 ft | 350 kts | 107° |
| 2026-04-20 21:38 | -15.65550 | -55.88986 | 10932 ft | 369 kts | 107° |
| 2026-04-20 21:38 | -15.66334 | -55.86418 | 11468 ft | 377 kts | 107° |
| 2026-04-20 21:39 | -15.67129 | -55.83814 | 12156 ft | 380 kts | 107° |
| 2026-04-20 21:39 | -15.67931 | -55.81185 | 12840 ft | 384 kts | 107° |
| 2026-04-20 21:39 | -15.68742 | -55.78525 | 13496 ft | 389 kts | 107° |
| 2026-04-20 21:39 | -15.69549 | -55.75875 | 14074 ft | 393 kts | 107° |
| 2026-04-20 21:40 | -15.70377 | -55.73155 | 14656 ft | 397 kts | 107° |
| 2026-04-20 21:40 | -15.71209 | -55.70418 | 15254 ft | 399 kts | 107° |
| 2026-04-20 21:40 | -15.72049 | -55.67654 | 15859 ft | 402 kts | 107° |
| 2026-04-20 21:40 | -15.72893 | -55.64876 | 16432 ft | 405 kts | 107° |
| 2026-04-20 21:41 | -15.73741 | -55.62082 | 16965 ft | 408 kts | 107° |
| 2026-04-20 21:41 | -15.74596 | -55.59261 | 17489 ft | 411 kts | 107° |
| 2026-04-20 21:41 | -15.75457 | -55.56422 | 18019 ft | 413 kts | 107° |
| 2026-04-20 21:41 | -15.76323 | -55.53565 | 18471 ft | 416 kts | 107° |
| 2026-04-20 21:42 | -15.77195 | -55.50688 | 18878 ft | 419 kts | 107° |
| 2026-04-20 21:42 | -15.78072 | -55.47791 | 19296 ft | 422 kts | 107° |
| 2026-04-20 21:42 | -15.78955 | -55.44875 | 19706 ft | 425 kts | 107° |
| 2026-04-20 21:42 | -15.79846 | -55.41928 | 20097 ft | 428 kts | 107° |
| 2026-04-20 21:43 | -15.80739 | -55.38977 | 20497 ft | 430 kts | 108° |
| 2026-04-20 21:43 | -15.81628 | -55.36034 | 20851 ft | 434 kts | 108° |
| 2026-04-20 21:43 | -15.82535 | -55.33030 | 21192 ft | 437 kts | 108° |
| 2026-04-20 21:43 | -15.83449 | -55.30003 | 21540 ft | 440 kts | 108° |
| 2026-04-20 21:44 | -15.84365 | -55.26966 | 21883 ft | 443 kts | 108° |
| 2026-04-20 21:44 | -15.85290 | -55.23900 | 22244 ft | 445 kts | 108° |
| 2026-04-20 21:44 | -15.86215 | -55.20829 | 22615 ft | 447 kts | 109° |
| 2026-04-20 21:44 | -15.87145 | -55.17742 | 22929 ft | 449 kts | 109° |
| 2026-04-20 21:45 | -15.88081 | -55.14631 | 23237 ft | 452 kts | 109° |
| 2026-04-20 21:45 | -15.89024 | -55.11499 | 23498 ft | 456 kts | 109° |
| 2026-04-20 21:45 | -15.89974 | -55.08339 | 23734 ft | 458 kts | 109° |
| 2026-04-20 21:45 | -15.90925 | -55.05174 | 23998 ft | 460 kts | 109° |
| 2026-04-20 21:46 | -15.91877 | -55.02001 | 24264 ft | 461 kts | 109° |
| 2026-04-20 21:46 | -15.92835 | -54.98810 | 24513 ft | 463 kts | 109° |
| 2026-04-20 21:46 | -15.93796 | -54.95604 | 24751 ft | 465 kts | 109° |
| 2026-04-20 21:46 | -15.94759 | -54.92391 | 24984 ft | 467 kts | 109° |
| 2026-04-20 21:47 | -15.95726 | -54.89161 | 25215 ft | 469 kts | 109° |
| 2026-04-20 21:47 | -15.96683 | -54.85966 | 25433 ft | 471 kts | 109° |
| 2026-04-20 21:47 | -15.97658 | -54.82708 | 25649 ft | 472 kts | 109° |
| 2026-04-20 21:47 | -15.98634 | -54.79443 | 25871 ft | 474 kts | 109° |
| 2026-04-20 21:48 | -15.99615 | -54.76161 | 26088 ft | 475 kts | 109° |
| 2026-04-20 21:48 | -16.00596 | -54.72878 | 26297 ft | 477 kts | 109° |
| 2026-04-20 21:48 | -16.01581 | -54.69576 | 26512 ft | 478 kts | 109° |
| 2026-04-20 21:48 | -16.02569 | -54.66265 | 26705 ft | 480 kts | 109° |
| 2026-04-20 21:49 | -16.03559 | -54.62943 | 26902 ft | 482 kts | 109° |
| 2026-04-20 21:49 | -16.04539 | -54.59654 | 27082 ft | 483 kts | 109° |
| 2026-04-20 21:49 | -16.05538 | -54.56299 | 27268 ft | 485 kts | 109° |
| 2026-04-20 21:49 | -16.06535 | -54.52948 | 27451 ft | 486 kts | 109° |
| 2026-04-20 21:50 | -16.07538 | -54.49575 | 27600 ft | 489 kts | 109° |
| 2026-04-20 21:50 | -16.08543 | -54.46197 | 27754 ft | 491 kts | 109° |
| 2026-04-20 21:50 | -16.09551 | -54.42801 | 27927 ft | 492 kts | 109° |
| 2026-04-20 21:50 | -16.10561 | -54.39400 | 28151 ft | 492 kts | 109° |
| 2026-04-20 21:51 | -16.11567 | -54.36007 | 28423 ft | 491 kts | 109° |
| 2026-04-20 21:51 | -16.12571 | -54.32617 | 28711 ft | 490 kts | 109° |
| 2026-04-20 21:51 | -16.13575 | -54.29228 | 28981 ft | 490 kts | 109° |
| 2026-04-20 21:51 | -16.14578 | -54.25840 | 29242 ft | 490 kts | 109° |
| 2026-04-20 21:52 | -16.15566 | -54.22501 | 29530 ft | 489 kts | 109° |
| 2026-04-20 21:52 | -16.16566 | -54.19120 | 29845 ft | 488 kts | 109° |
| 2026-04-20 21:52 | -16.17568 | -54.15730 | 30117 ft | 488 kts | 110° |
| 2026-04-20 21:52 | -16.18564 | -54.12358 | 30369 ft | 488 kts | 110° |
| 2026-04-20 21:53 | -16.19559 | -54.08984 | 30636 ft | 487 kts | 110° |
| 2026-04-20 21:53 | -16.20552 | -54.05616 | 30927 ft | 487 kts | 110° |
| 2026-04-20 21:53 | -16.21545 | -54.02249 | 31229 ft | 486 kts | 110° |
| 2026-04-20 21:53 | -16.22534 | -53.98892 | 31520 ft | 485 kts | 110° |
| 2026-04-20 21:54 | -16.23524 | -53.95530 | 31829 ft | 485 kts | 110° |
| 2026-04-20 21:54 | -16.24511 | -53.92172 | 32108 ft | 485 kts | 110° |
| 2026-04-20 21:54 | -16.25497 | -53.88820 | 32417 ft | 485 kts | 110° |
| 2026-04-20 21:54 | -16.26485 | -53.85457 | 32768 ft | 484 kts | 111° |
| 2026-04-20 21:55 | -16.27467 | -53.82112 | 33125 ft | 483 kts | 111° |
| 2026-04-20 21:55 | -16.28434 | -53.78818 | 33445 ft | 482 kts | 111° |
| 2026-04-20 21:55 | -16.29415 | -53.75471 | 33774 ft | 482 kts | 111° |
| 2026-04-20 21:55 | -16.30390 | -53.72145 | 34104 ft | 481 kts | 111° |
| 2026-04-20 21:56 | -16.31364 | -53.68817 | 34429 ft | 480 kts | 111° |
| 2026-04-20 21:56 | -16.32337 | -53.65492 | 34733 ft | 479 kts | 111° |
| 2026-04-20 21:56 | -16.33306 | -53.62179 | 35000 ft | 479 kts | 111° |
| 2026-04-20 21:56 | -16.34276 | -53.58862 | 35240 ft | 479 kts | 111° |
| 2026-04-20 21:57 | -16.35246 | -53.55544 | 35523 ft | 479 kts | 111° |
| 2026-04-20 21:57 | -16.36213 | -53.52231 | 35816 ft | 477 kts | 111° |
| 2026-04-20 21:57 | -16.37180 | -53.48919 | 36098 ft | 477 kts | 111° |
| 2026-04-20 21:57 | -16.38145 | -53.45609 | 36341 ft | 477 kts | 111° |
| 2026-04-20 21:58 | -16.39106 | -53.42310 | 36578 ft | 477 kts | 111° |
| 2026-04-20 21:58 | -16.40056 | -53.39050 | 36842 ft | 476 kts | 111° |
| 2026-04-20 21:58 | -16.41019 | -53.35739 | 37082 ft | 476 kts | 111° |
| 2026-04-20 21:58 | -16.41981 | -53.32431 | 37289 ft | 476 kts | 111° |
| 2026-04-20 21:59 | -16.42944 | -53.29118 | 37504 ft | 476 kts | 111° |
| 2026-04-20 21:59 | -16.43901 | -53.25822 | 37750 ft | 475 kts | 111° |
| 2026-04-20 21:59 | -16.44857 | -53.22530 | 38017 ft | 474 kts | 111° |
| 2026-04-20 21:59 | -16.45808 | -53.19250 | 38291 ft | 473 kts | 111° |
| 2026-04-20 22:00 | -16.46739 | -53.16010 | 38493 ft | 473 kts | 109° |
| 2026-04-20 22:00 | -16.47495 | -53.12660 | 38631 ft | 476 kts | 105° |
| 2026-04-20 22:00 | -16.48124 | -53.09216 | 38785 ft | 477 kts | 104° |
| 2026-04-20 22:00 | -16.48681 | -53.05859 | 38977 ft | 477 kts | 103° |
| 2026-04-20 22:01 | -16.49231 | -53.02458 | 39144 ft | 476 kts | 103° |
| 2026-04-20 22:01 | -16.49787 | -52.99061 | 39318 ft | 475 kts | 104° |
| 2026-04-20 22:01 | -16.50357 | -52.95665 | 39491 ft | 474 kts | 104° |
| 2026-04-20 22:01 | -16.50935 | -52.92285 | 39658 ft | 473 kts | 104° |
| 2026-04-20 22:02 | -16.51521 | -52.88910 | 39772 ft | 474 kts | 104° |
| 2026-04-20 22:02 | -16.52114 | -52.85530 | 39892 ft | 474 kts | 104° |
| 2026-04-20 22:02 | -16.52707 | -52.82155 | 40042 ft | 473 kts | 104° |
| 2026-04-20 22:02 | -16.53300 | -52.78777 | 40211 ft | 472 kts | 104° |
| 2026-04-20 22:03 | -16.53890 | -52.75415 | 40357 ft | 472 kts | 104° |
| 2026-04-20 22:03 | -16.54479 | -52.72051 | 40497 ft | 472 kts | 104° |
| 2026-04-20 22:03 | -16.55067 | -52.68691 | 40616 ft | 472 kts | 104° |
| 2026-04-20 22:04 | -16.56243 | -52.61954 | 40829 ft | 472 kts | 104° |
| 2026-04-20 22:04 | -16.57412 | -52.55243 | 40907 ft | 475 kts | 104° |
| 2026-04-20 22:05 | -16.58587 | -52.48473 | 40910 ft | 473 kts | 104° |
| 2026-04-20 22:05 | -16.59754 | -52.41740 | 40914 ft | 471 kts | 104° |
| 2026-04-20 22:06 | -16.60917 | -52.35018 | 40919 ft | 470 kts | 104° |
| 2026-04-20 22:06 | -16.62068 | -52.28353 | 40928 ft | 469 kts | 104° |
| 2026-04-20 22:07 | -16.63222 | -52.21659 | 40922 ft | 468 kts | 105° |
| 2026-04-20 22:07 | -16.64373 | -52.14971 | 40930 ft | 468 kts | 105° |
| 2026-04-20 22:08 | -16.65524 | -52.08269 | 40928 ft | 469 kts | 105° |
| 2026-04-20 22:08 | -16.66664 | -52.01613 | 40939 ft | 469 kts | 105° |
| 2026-04-20 22:09 | -16.67812 | -51.94900 | 40927 ft | 470 kts | 105° |
| 2026-04-20 22:09 | -16.68958 | -51.88184 | 40931 ft | 471 kts | 105° |
| 2026-04-20 22:10 | -16.70106 | -51.81444 | 40933 ft | 471 kts | 105° |
| 2026-04-20 22:10 | -16.71252 | -51.74702 | 40938 ft | 471 kts | 105° |
| 2026-04-20 22:11 | -16.72388 | -51.68004 | 40930 ft | 472 kts | 105° |
| 2026-04-20 22:11 | -16.73532 | -51.61247 | 40929 ft | 472 kts | 105° |
| 2026-04-20 22:12 | -16.74479 | -51.55638 | 40944 ft | 472 kts | 105° |
| 2026-04-20 22:12 | -16.75804 | -51.47785 | 40926 ft | 472 kts | 105° |
| 2026-04-20 22:13 | -16.76749 | -51.42169 | 40930 ft | 472 kts | 105° |
| 2026-04-20 22:13 | -16.77883 | -51.35415 | 40931 ft | 472 kts | 105° |
| 2026-04-20 22:14 | -16.79015 | -51.28659 | 40935 ft | 472 kts | 105° |
| 2026-04-20 22:14 | -16.80144 | -51.21909 | 40929 ft | 472 kts | 105° |
| 2026-04-20 22:15 | -16.81270 | -51.15164 | 40940 ft | 471 kts | 105° |
| 2026-04-20 22:15 | -16.82393 | -51.08420 | 40938 ft | 471 kts | 105° |
| 2026-04-20 22:16 | -16.83509 | -51.01709 | 40934 ft | 471 kts | 105° |
| 2026-04-20 22:16 | -16.84627 | -50.94967 | 40940 ft | 471 kts | 105° |
| 2026-04-20 22:17 | -16.85742 | -50.88232 | 40939 ft | 471 kts | 105° |
| 2026-04-20 22:17 | -16.86857 | -50.81482 | 40946 ft | 471 kts | 105° |
| 2026-04-20 22:18 | -16.87964 | -50.74769 | 40940 ft | 471 kts | 105° |
| 2026-04-20 22:18 | -16.89074 | -50.68024 | 40946 ft | 471 kts | 105° |
| 2026-04-20 22:19 | -16.90183 | -50.61268 | 40943 ft | 471 kts | 105° |
| 2026-04-20 22:19 | -16.91281 | -50.54562 | 40948 ft | 472 kts | 105° |
| 2026-04-20 22:20 | -16.92388 | -50.47792 | 40940 ft | 472 kts | 105° |
| 2026-04-20 22:20 | -16.93492 | -50.41024 | 40945 ft | 472 kts | 105° |
| 2026-04-20 22:21 | -16.94594 | -50.34257 | 40940 ft | 473 kts | 105° |
| 2026-04-20 22:21 | -16.95687 | -50.27520 | 40936 ft | 472 kts | 105° |
| 2026-04-20 22:22 | -16.96783 | -50.20757 | 40936 ft | 472 kts | 105° |
| 2026-04-20 22:22 | -16.97876 | -50.13997 | 40934 ft | 472 kts | 105° |
| 2026-04-20 22:23 | -16.98968 | -50.07234 | 40938 ft | 472 kts | 105° |
| 2026-04-20 22:23 | -17.00057 | -50.00471 | 40937 ft | 472 kts | 105° |
| 2026-04-20 22:24 | -17.01144 | -49.93704 | 40939 ft | 472 kts | 105° |
| 2026-04-20 22:24 | -17.02229 | -49.86938 | 40945 ft | 472 kts | 105° |
| 2026-04-20 22:25 | -17.03163 | -49.80172 | 40912 ft | 479 kts | 94° |
| 2026-04-20 22:25 | -17.02743 | -49.76701 | 40955 ft | 486 kts | 77° |
| 2026-04-20 22:25 | -17.01480 | -49.73396 | 40924 ft | 492 kts | 61° |
| 2026-04-20 22:26 | -16.97423 | -49.67616 | 40941 ft | 494 kts | 54° |
| 2026-04-20 22:26 | -16.93251 | -49.61949 | 40932 ft | 495 kts | 54° |
| 2026-04-20 22:27 | -16.87049 | -49.53310 | 40942 ft | 491 kts | 55° |
| 2026-04-20 22:27 | -16.83036 | -49.47664 | 40945 ft | 482 kts | 55° |
| 2026-04-20 22:28 | -16.79078 | -49.42103 | 40978 ft | 473 kts | 55° |
| 2026-04-20 22:28 | -16.75155 | -49.36593 | 41005 ft | 473 kts | 56° |
| 2026-04-20 22:29 | -16.73247 | -49.33798 | 40873 ft | 473 kts | 57° |
| 2026-04-20 22:29 | -16.71381 | -49.30973 | 40326 ft | 474 kts | 57° |
| 2026-04-20 22:29 | -16.69537 | -49.28145 | 39536 ft | 481 kts | 57° |
| 2026-04-20 22:29 | -16.67640 | -49.25232 | 38684 ft | 489 kts | 57° |
| 2026-04-20 22:30 | -16.65710 | -49.22282 | 37710 ft | 496 kts | 57° |
| 2026-04-20 22:30 | -16.63743 | -49.19294 | 36824 ft | 502 kts | 57° |
| 2026-04-20 22:30 | -16.61756 | -49.16291 | 36029 ft | 505 kts | 57° |
| 2026-04-20 22:30 | -16.59751 | -49.13269 | 35285 ft | 507 kts | 57° |
| 2026-04-20 22:31 | -16.57735 | -49.10236 | 34580 ft | 507 kts | 57° |
| 2026-04-20 22:31 | -16.55729 | -49.07218 | 33867 ft | 508 kts | 57° |
| 2026-04-20 22:31 | -16.53715 | -49.04190 | 33096 ft | 507 kts | 57° |
| 2026-04-20 22:31 | -16.51709 | -49.01174 | 32306 ft | 507 kts | 57° |
| 2026-04-20 22:32 | -16.49693 | -48.98144 | 31500 ft | 507 kts | 57° |
| 2026-04-20 22:32 | -16.47705 | -48.95155 | 30688 ft | 509 kts | 57° |
| 2026-04-20 22:32 | -16.45685 | -48.92119 | 29785 ft | 510 kts | 57° |
| 2026-04-20 22:32 | -16.43661 | -48.89078 | 28813 ft | 509 kts | 57° |
| 2026-04-20 22:33 | -16.41651 | -48.86061 | 27881 ft | 506 kts | 57° |
| 2026-04-20 22:33 | -16.39646 | -48.83052 | 26927 ft | 504 kts | 57° |
| 2026-04-20 22:33 | -16.37645 | -48.80051 | 25931 ft | 503 kts | 57° |
| 2026-04-20 22:33 | -16.35660 | -48.77075 | 25131 ft | 497 kts | 56° |
| 2026-04-20 22:34 | -16.33709 | -48.74151 | 24443 ft | 487 kts | 56° |
| 2026-04-20 22:34 | -16.31793 | -48.71279 | 23807 ft | 478 kts | 56° |
| 2026-04-20 22:34 | -16.29962 | -48.68429 | 23038 ft | 470 kts | 58° |
| 2026-04-20 22:34 | -16.28211 | -48.65583 | 22209 ft | 464 kts | 58° |
| 2026-04-20 22:35 | -16.26498 | -48.62757 | 21401 ft | 458 kts | 58° |
| 2026-04-20 22:35 | -16.24812 | -48.59972 | 20639 ft | 452 kts | 58° |
| 2026-04-20 22:35 | -16.23143 | -48.57232 | 19897 ft | 445 kts | 58° |
| 2026-04-20 22:35 | -16.21487 | -48.54529 | 19159 ft | 440 kts | 58° |
| 2026-04-20 22:36 | -16.19851 | -48.51870 | 18503 ft | 433 kts | 58° |
| 2026-04-20 22:36 | -16.18254 | -48.49283 | 17731 ft | 427 kts | 58° |
| 2026-04-20 22:36 | -16.16652 | -48.46691 | 16874 ft | 424 kts | 58° |
| 2026-04-20 22:36 | -16.15066 | -48.44126 | 16070 ft | 419 kts | 58° |
| 2026-04-20 22:37 | -16.13495 | -48.41586 | 15311 ft | 414 kts | 58° |
| 2026-04-20 22:37 | -16.11945 | -48.39080 | 14576 ft | 410 kts | 58° |
| 2026-04-20 22:37 | -16.10412 | -48.36601 | 13882 ft | 405 kts | 58° |
| 2026-04-20 22:37 | -16.08900 | -48.34157 | 13123 ft | 400 kts | 58° |
| 2026-04-20 22:38 | -16.07397 | -48.31728 | 12368 ft | 395 kts | 58° |
| 2026-04-20 22:38 | -16.05920 | -48.29342 | 11649 ft | 390 kts | 58° |
| 2026-04-20 22:38 | -16.04480 | -48.27016 | 10946 ft | 381 kts | 58° |
| 2026-04-20 22:38 | -16.03055 | -48.24718 | 10260 ft | 366 kts | 58° |
| 2026-04-20 22:39 | -16.01720 | -48.22564 | 9580 ft | 353 kts | 58° |
| 2026-04-20 22:39 | -16.00408 | -48.20450 | 8874 ft | 343 kts | 58° |
| 2026-04-20 22:39 | -15.99078 | -48.18440 | 8252 ft | 332 kts | 50° |
| 2026-04-20 22:39 | -15.97312 | -48.16953 | 7743 ft | 321 kts | 35° |
| 2026-04-20 22:40 | -15.95478 | -48.15694 | 7267 ft | 310 kts | 35° |
| 2026-04-20 22:40 | -15.93724 | -48.14477 | 6814 ft | 300 kts | 35° |
| 2026-04-20 22:40 | -15.92017 | -48.13276 | 6350 ft | 292 kts | 36° |
| 2026-04-20 22:40 | -15.90369 | -48.12109 | 6058 ft | 279 kts | 36° |
| 2026-04-20 22:41 | -15.89049 | -48.10770 | 5954 ft | 255 kts | 65° |
| 2026-04-20 22:41 | -15.88743 | -48.09053 | 5989 ft | 235 kts | 92° |
| 2026-04-20 22:41 | -15.88767 | -48.07423 | 5975 ft | 217 kts | 90° |
| 2026-04-20 22:41 | -15.88757 | -48.05929 | 5730 ft | 208 kts | 91° |
| 2026-04-20 22:42 | -15.88732 | -48.04482 | 5482 ft | 193 kts | 88° |
| 2026-04-20 22:42 | -15.88655 | -48.03146 | 5249 ft | 177 kts | 87° |
| 2026-04-20 22:42 | -15.88576 | -48.01935 | 5038 ft | 159 kts | 86° |
| 2026-04-20 22:42 | -15.88506 | -48.00849 | 4831 ft | 144 kts | 86° |
| 2026-04-20 22:43 | -15.88440 | -47.99837 | 4658 ft | 141 kts | 86° |
| 2026-04-20 22:43 | -15.88374 | -47.98809 | 4481 ft | 144 kts | 86° |
| 2026-04-20 22:43 | -15.88307 | -47.97758 | 4271 ft | 147 kts | 86° |
| 2026-04-20 22:43 | -15.88236 | -47.96691 | 4065 ft | 149 kts | 86° |
| 2026-04-20 22:44 | -15.88164 | -47.95616 | 3844 ft | 149 kts | 86° |
| 2026-04-20 22:44 | -15.88098 | -47.94541 | 3640 ft | 149 kts | 88° |
| 2026-04-20 22:44 | -15.88031 | -47.93458 | 3501 ft | 147 kts | 88° |
| 2026-04-20 22:44 | -15.87979 | -47.92625 | 3478 ft | 86 kts | 86° |
| 2026-04-20 22:45 | -15.87953 | -47.92223 | 3475 ft | 26 kts | 86° |
| 2026-04-20 22:45 | -15.87946 | -47.92115 | 3472 ft | 15 kts | 86° |
| 2026-04-20 22:45 | -15.87937 | -47.91992 | 3469 ft | 20 kts | 81° |
| 2026-04-20 22:45 | -15.87892 | -47.91843 | 3467 ft | 24 kts | 64° |
| 2026-04-20 22:46 | -15.87797 | -47.91681 | 3460 ft | 28 kts | 57° |
| 2026-04-20 22:46 | -15.87680 | -47.91551 | 3461 ft | 23 kts | 2° |
| 2026-04-20 22:46 | -15.87525 | -47.91561 | 3467 ft | 22 kts | 356° |
| 2026-04-20 22:46 | -15.87375 | -47.91571 | 3470 ft | 21 kts | 356° |
| 2026-04-20 22:47 | -15.87229 | -47.91581 | 3471 ft | 21 kts | 357° |
| 2026-04-20 22:47 | -15.87088 | -47.91591 | 3471 ft | 20 kts | 356° |
| 2026-04-20 22:47 | -15.86951 | -47.91600 | 3471 ft | 19 kts | 356° |
| 2026-04-20 22:47 | -15.86899 | -47.91666 | 3471 ft | 13 kts | 266° |
| 2026-04-20 22:48 | -15.86905 | -47.91760 | 3471 ft | 13 kts | 266° |
| 2026-04-20 22:48 | -15.86911 | -47.91852 | 3471 ft | 13 kts | 266° |
| 2026-04-20 22:48 | -15.86914 | -47.91942 | 3471 ft | 12 kts | 276° |
| 2026-04-20 22:48 | -15.86915 | -47.92009 | 3471 ft | 1 kts | 266° |
| 2026-04-20 22:49 | -15.86915 | -47.92011 | 3471 ft | 0 kts | 266° |